sensor_id;sensor_type;location;lat;lon;timestamp;P1;durP1;ratioP1;P2;durP2;ratioP2
77191;SDS011;66172;48.526;8.078;2023-04-10T00:01:50;9.07;;;4.07;;
77191;SDS011;66172;48.526;8.078;2023-04-10T00:04:15;10.68;;;4.32;;
77191;SDS011;66172;48.526;8.078;2023-04-10T00:06:41;10.43;;;4.50;;
77191;SDS011;66172;48.526;8.078;2023-04-10T00:09:08;9.07;;;4.40;;
77191;SDS011;66172;48.526;8.078;2023-04-10T00:11:34;10.60;;;3.90;;
77191;SDS011;66172;48.526;8.078;2023-04-10T00:14:00;9.43;;;4.50;;
77191;SDS011;66172;48.526;8.078;2023-04-10T00:16:26;8.90;;;3.80;;
77191;SDS011;66172;48.526;8.078;2023-04-10T00:18:52;9.63;;;4.05;;
77191;SDS011;66172;48.526;8.078;2023-04-10T00:21:18;9.30;;;3.90;;
77191;SDS011;66172;48.526;8.078;2023-04-10T00:23:44;8.35;;;3.95;;
77191;SDS011;66172;48.526;8.078;2023-04-10T00:26:09;10.85;;;3.58;;
77191;SDS011;66172;48.526;8.078;2023-04-10T00:28:35;8.80;;;3.80;;
77191;SDS011;66172;48.526;8.078;2023-04-10T00:31:04;7.27;;;3.43;;
77191;SDS011;66172;48.526;8.078;2023-04-10T00:33:30;9.32;;;4.43;;
77191;SDS011;66172;48.526;8.078;2023-04-10T00:35:56;9.27;;;4.40;;
77191;SDS011;66172;48.526;8.078;2023-04-10T00:38:22;9.55;;;4.18;;
77191;SDS011;66172;48.526;8.078;2023-04-10T00:40:48;8.97;;;4.43;;
77191;SDS011;66172;48.526;8.078;2023-04-10T00:43:14;9.52;;;4.03;;
77191;SDS011;66172;48.526;8.078;2023-04-10T00:45:40;9.18;;;4.40;;
77191;SDS011;66172;48.526;8.078;2023-04-10T00:48:06;8.20;;;4.00;;
77191;SDS011;66172;48.526;8.078;2023-04-10T00:50:32;9.77;;;4.47;;
77191;SDS011;66172;48.526;8.078;2023-04-10T00:52:58;8.98;;;3.75;;
77191;SDS011;66172;48.526;8.078;2023-04-10T00:55:24;9.55;;;4.10;;
77191;SDS011;66172;48.526;8.078;2023-04-10T00:57:50;9.23;;;3.88;;
77191;SDS011;66172;48.526;8.078;2023-04-10T01:00:16;9.53;;;4.30;;
77191;SDS011;66172;48.526;8.078;2023-04-10T01:02:42;9.05;;;4.07;;
77191;SDS011;66172;48.526;8.078;2023-04-10T01:05:09;8.35;;;3.88;;
77191;SDS011;66172;48.526;8.078;2023-04-10T01:07:46;9.50;;;4.32;;
77191;SDS011;66172;48.526;8.078;2023-04-10T01:10:28;8.82;;;4.05;;
77191;SDS011;66172;48.526;8.078;2023-04-10T01:13:21;9.90;;;4.03;;
77191;SDS011;66172;48.526;8.078;2023-04-10T01:15:55;8.88;;;3.95;;
77191;SDS011;66172;48.526;8.078;2023-04-10T01:18:36;10.25;;;4.30;;
77191;SDS011;66172;48.526;8.078;2023-04-10T01:21:17;8.13;;;3.90;;
77191;SDS011;66172;48.526;8.078;2023-04-10T01:23:51;8.88;;;3.58;;
77191;SDS011;66172;48.526;8.078;2023-04-10T01:26:22;9.17;;;3.63;;
77191;SDS011;66172;48.526;8.078;2023-04-10T01:29:16;9.23;;;3.67;;
77191;SDS011;66172;48.526;8.078;2023-04-10T01:31:52;8.57;;;3.97;;
77191;SDS011;66172;48.526;8.078;2023-04-10T01:34:23;8.60;;;4.03;;
77191;SDS011;66172;48.526;8.078;2023-04-10T01:36:52;8.57;;;3.65;;
77191;SDS011;66172;48.526;8.078;2023-04-10T01:39:24;8.80;;;3.90;;
77191;SDS011;66172;48.526;8.078;2023-04-10T01:41:52;8.18;;;3.72;;
77191;SDS011;66172;48.526;8.078;2023-04-10T01:44:22;7.72;;;3.30;;
77191;SDS011;66172;48.526;8.078;2023-04-10T01:46:53;9.07;;;4.07;;
77191;SDS011;66172;48.526;8.078;2023-04-10T01:49:21;9.27;;;3.80;;
77191;SDS011;66172;48.526;8.078;2023-04-10T01:51:50;8.63;;;4.17;;
77191;SDS011;66172;48.526;8.078;2023-04-10T01:54:16;8.55;;;3.97;;
77191;SDS011;66172;48.526;8.078;2023-04-10T01:56:42;8.15;;;3.70;;
77191;SDS011;66172;48.526;8.078;2023-04-10T01:59:08;8.30;;;3.65;;
77191;SDS011;66172;48.526;8.078;2023-04-10T02:01:35;9.30;;;3.75;;
77191;SDS011;66172;48.526;8.078;2023-04-10T02:04:01;8.33;;;3.30;;
77191;SDS011;66172;48.526;8.078;2023-04-10T02:06:49;9.77;;;4.25;;
77191;SDS011;66172;48.526;8.078;2023-04-10T02:09:22;9.32;;;3.70;;
77191;SDS011;66172;48.526;8.078;2023-04-10T02:11:54;9.52;;;4.05;;
77191;SDS011;66172;48.526;8.078;2023-04-10T02:14:29;10.57;;;4.72;;
77191;SDS011;66172;48.526;8.078;2023-04-10T02:16:57;9.07;;;3.93;;
77191;SDS011;66172;48.526;8.078;2023-04-10T02:19:24;9.30;;;3.92;;
77191;SDS011;66172;48.526;8.078;2023-04-10T02:21:52;8.60;;;3.67;;
77191;SDS011;66172;48.526;8.078;2023-04-10T02:24:19;8.82;;;3.75;;
77191;SDS011;66172;48.526;8.078;2023-04-10T02:26:46;9.05;;;3.70;;
77191;SDS011;66172;48.526;8.078;2023-04-10T02:29:13;10.23;;;4.23;;
77191;SDS011;66172;48.526;8.078;2023-04-10T02:31:39;9.77;;;4.20;;
77191;SDS011;66172;48.526;8.078;2023-04-10T02:34:06;9.10;;;4.07;;
77191;SDS011;66172;48.526;8.078;2023-04-10T02:36:33;8.07;;;3.50;;
77191;SDS011;66172;48.526;8.078;2023-04-10T02:38:59;8.48;;;3.80;;
77191;SDS011;66172;48.526;8.078;2023-04-10T02:41:25;8.33;;;3.83;;
77191;SDS011;66172;48.526;8.078;2023-04-10T02:43:51;8.57;;;3.90;;
77191;SDS011;66172;48.526;8.078;2023-04-10T02:46:17;7.90;;;3.47;;
77191;SDS011;66172;48.526;8.078;2023-04-10T02:48:43;10.43;;;5.50;;
77191;SDS011;66172;48.526;8.078;2023-04-10T02:51:09;12.52;;;4.90;;
77191;SDS011;66172;48.526;8.078;2023-04-10T02:53:35;10.43;;;4.85;;
77191;SDS011;66172;48.526;8.078;2023-04-10T02:56:01;9.98;;;4.40;;
77191;SDS011;66172;48.526;8.078;2023-04-10T02:58:27;10.23;;;4.17;;
77191;SDS011;66172;48.526;8.078;2023-04-10T03:00:55;8.98;;;3.67;;
77191;SDS011;66172;48.526;8.078;2023-04-10T03:03:22;11.48;;;4.38;;
77191;SDS011;66172;48.526;8.078;2023-04-10T03:05:48;9.02;;;4.10;;
77191;SDS011;66172;48.526;8.078;2023-04-10T03:08:17;9.05;;;4.10;;
77191;SDS011;66172;48.526;8.078;2023-04-10T03:10:43;9.83;;;4.30;;
77191;SDS011;66172;48.526;8.078;2023-04-10T03:13:10;9.63;;;4.22;;
77191;SDS011;66172;48.526;8.078;2023-04-10T03:15:36;11.15;;;3.80;;
77191;SDS011;66172;48.526;8.078;2023-04-10T03:18:03;9.27;;;4.05;;
77191;SDS011;66172;48.526;8.078;2023-04-10T03:20:34;9.55;;;3.92;;
77191;SDS011;66172;48.526;8.078;2023-04-10T03:23:00;8.20;;;3.57;;
77191;SDS011;66172;48.526;8.078;2023-04-10T03:25:27;9.43;;;3.97;;
77191;SDS011;66172;48.526;8.078;2023-04-10T03:27:53;8.68;;;3.65;;
77191;SDS011;66172;48.526;8.078;2023-04-10T03:30:20;8.43;;;3.90;;
77191;SDS011;66172;48.526;8.078;2023-04-10T03:32:45;8.80;;;3.47;;
77191;SDS011;66172;48.526;8.078;2023-04-10T03:35:11;9.23;;;3.55;;
77191;SDS011;66172;48.526;8.078;2023-04-10T03:37:37;8.60;;;3.55;;
77191;SDS011;66172;48.526;8.078;2023-04-10T03:40:05;8.83;;;3.70;;
77191;SDS011;66172;48.526;8.078;2023-04-10T03:42:32;8.38;;;3.42;;
77191;SDS011;66172;48.526;8.078;2023-04-10T03:44:58;9.68;;;3.45;;
77191;SDS011;66172;48.526;8.078;2023-04-10T03:47:27;7.03;;;3.10;;
77191;SDS011;66172;48.526;8.078;2023-04-10T03:49:53;9.77;;;4.28;;
77191;SDS011;66172;48.526;8.078;2023-04-10T03:52:19;9.10;;;3.73;;
77191;SDS011;66172;48.526;8.078;2023-04-10T03:54:45;8.70;;;3.50;;
77191;SDS011;66172;48.526;8.078;2023-04-10T03:57:11;9.57;;;3.80;;
77191;SDS011;66172;48.526;8.078;2023-04-10T03:59:36;7.97;;;3.20;;
77191;SDS011;66172;48.526;8.078;2023-04-10T04:02:02;8.20;;;3.23;;
77191;SDS011;66172;48.526;8.078;2023-04-10T04:04:28;9.25;;;3.28;;
77191;SDS011;66172;48.526;8.078;2023-04-10T04:06:55;7.80;;;3.05;;
77191;SDS011;66172;48.526;8.078;2023-04-10T04:09:21;7.95;;;3.05;;
77191;SDS011;66172;48.526;8.078;2023-04-10T04:11:47;7.70;;;3.50;;
77191;SDS011;66172;48.526;8.078;2023-04-10T04:14:13;8.52;;;3.28;;
77191;SDS011;66172;48.526;8.078;2023-04-10T04:16:39;8.60;;;3.35;;
77191;SDS011;66172;48.526;8.078;2023-04-10T04:19:05;8.37;;;3.23;;
77191;SDS011;66172;48.526;8.078;2023-04-10T04:21:31;9.98;;;3.90;;
77191;SDS011;66172;48.526;8.078;2023-04-10T04:23:57;13.50;;;5.90;;
77191;SDS011;66172;48.526;8.078;2023-04-10T04:26:22;14.20;;;5.40;;
77191;SDS011;66172;48.526;8.078;2023-04-10T04:28:49;13.07;;;5.37;;
77191;SDS011;66172;48.526;8.078;2023-04-10T04:31:15;9.05;;;3.85;;
77191;SDS011;66172;48.526;8.078;2023-04-10T04:33:41;11.02;;;4.50;;
77191;SDS011;66172;48.526;8.078;2023-04-10T04:36:07;11.33;;;5.00;;
77191;SDS011;66172;48.526;8.078;2023-04-10T04:38:33;12.77;;;5.47;;
77191;SDS011;66172;48.526;8.078;2023-04-10T04:40:59;9.73;;;3.80;;
77191;SDS011;66172;48.526;8.078;2023-04-10T04:43:24;8.45;;;3.80;;
77191;SDS011;66172;48.526;8.078;2023-04-10T04:45:50;8.43;;;3.33;;
77191;SDS011;66172;48.526;8.078;2023-04-10T04:48:16;9.15;;;4.05;;
77191;SDS011;66172;48.526;8.078;2023-04-10T04:50:42;9.93;;;4.38;;
77191;SDS011;66172;48.526;8.078;2023-04-10T04:53:08;9.83;;;3.60;;
77191;SDS011;66172;48.526;8.078;2023-04-10T04:55:34;8.70;;;3.50;;
77191;SDS011;66172;48.526;8.078;2023-04-10T04:58:00;9.30;;;3.58;;
77191;SDS011;66172;48.526;8.078;2023-04-10T05:00:26;10.70;;;4.10;;
77191;SDS011;66172;48.526;8.078;2023-04-10T05:02:52;8.83;;;3.90;;
77191;SDS011;66172;48.526;8.078;2023-04-10T05:05:17;9.52;;;4.10;;
77191;SDS011;66172;48.526;8.078;2023-04-10T05:07:43;8.05;;;3.50;;
77191;SDS011;66172;48.526;8.078;2023-04-10T05:10:09;8.05;;;3.47;;
77191;SDS011;66172;48.526;8.078;2023-04-10T05:12:35;9.17;;;3.87;;
77191;SDS011;66172;48.526;8.078;2023-04-10T05:15:02;8.10;;;3.20;;
77191;SDS011;66172;48.526;8.078;2023-04-10T05:17:28;7.72;;;3.03;;
77191;SDS011;66172;48.526;8.078;2023-04-10T05:19:53;7.80;;;3.10;;
77191;SDS011;66172;48.526;8.078;2023-04-10T05:22:20;7.38;;;2.67;;
77191;SDS011;66172;48.526;8.078;2023-04-10T05:24:46;7.68;;;3.10;;
77191;SDS011;66172;48.526;8.078;2023-04-10T05:27:12;6.78;;;2.75;;
77191;SDS011;66172;48.526;8.078;2023-04-10T05:29:37;7.77;;;2.80;;
77191;SDS011;66172;48.526;8.078;2023-04-10T05:32:03;7.28;;;3.10;;
77191;SDS011;66172;48.526;8.078;2023-04-10T05:34:29;7.88;;;2.63;;
77191;SDS011;66172;48.526;8.078;2023-04-10T05:36:55;7.90;;;3.00;;
77191;SDS011;66172;48.526;8.078;2023-04-10T05:39:21;7.97;;;3.17;;
77191;SDS011;66172;48.526;8.078;2023-04-10T05:41:47;7.32;;;2.90;;
77191;SDS011;66172;48.526;8.078;2023-04-10T05:44:13;8.98;;;2.92;;
77191;SDS011;66172;48.526;8.078;2023-04-10T05:46:39;7.87;;;3.10;;
77191;SDS011;66172;48.526;8.078;2023-04-10T05:49:05;7.70;;;3.00;;
77191;SDS011;66172;48.526;8.078;2023-04-10T05:51:30;7.28;;;3.15;;
77191;SDS011;66172;48.526;8.078;2023-04-10T05:53:56;7.82;;;3.05;;
77191;SDS011;66172;48.526;8.078;2023-04-10T05:56:22;6.87;;;2.70;;
77191;SDS011;66172;48.526;8.078;2023-04-10T05:58:48;7.00;;;2.80;;
77191;SDS011;66172;48.526;8.078;2023-04-10T06:01:14;7.05;;;2.63;;
77191;SDS011;66172;48.526;8.078;2023-04-10T06:03:40;6.43;;;2.87;;
77191;SDS011;66172;48.526;8.078;2023-04-10T06:06:06;6.35;;;2.80;;
77191;SDS011;66172;48.526;8.078;2023-04-10T06:08:32;7.47;;;2.85;;
77191;SDS011;66172;48.526;8.078;2023-04-10T06:10:59;6.78;;;2.70;;
77191;SDS011;66172;48.526;8.078;2023-04-10T06:13:25;7.28;;;2.70;;
77191;SDS011;66172;48.526;8.078;2023-04-10T06:15:51;7.57;;;2.90;;
77191;SDS011;66172;48.526;8.078;2023-04-10T06:18:17;6.97;;;2.80;;
77191;SDS011;66172;48.526;8.078;2023-04-10T06:20:43;6.90;;;2.55;;
77191;SDS011;66172;48.526;8.078;2023-04-10T06:23:09;7.53;;;2.78;;
77191;SDS011;66172;48.526;8.078;2023-04-10T06:25:36;7.30;;;3.03;;
77191;SDS011;66172;48.526;8.078;2023-04-10T06:28:02;6.13;;;2.70;;
77191;SDS011;66172;48.526;8.078;2023-04-10T06:30:28;6.68;;;3.20;;
77191;SDS011;66172;48.526;8.078;2023-04-10T06:32:55;7.07;;;3.55;;
77191;SDS011;66172;48.526;8.078;2023-04-10T06:35:21;6.00;;;2.90;;
77191;SDS011;66172;48.526;8.078;2023-04-10T06:37:47;6.35;;;3.10;;
77191;SDS011;66172;48.526;8.078;2023-04-10T06:40:13;6.65;;;3.15;;
77191;SDS011;66172;48.526;8.078;2023-04-10T06:42:39;6.60;;;3.40;;
77191;SDS011;66172;48.526;8.078;2023-04-10T06:45:06;5.60;;;3.10;;
77191;SDS011;66172;48.526;8.078;2023-04-10T06:47:33;6.32;;;3.78;;
77191;SDS011;66172;48.526;8.078;2023-04-10T06:49:59;7.10;;;3.75;;
77191;SDS011;66172;48.526;8.078;2023-04-10T06:52:25;6.65;;;3.90;;
77191;SDS011;66172;48.526;8.078;2023-04-10T06:54:51;6.75;;;3.92;;
77191;SDS011;66172;48.526;8.078;2023-04-10T06:57:17;5.97;;;4.17;;
77191;SDS011;66172;48.526;8.078;2023-04-10T06:59:43;6.38;;;4.07;;
77191;SDS011;66172;48.526;8.078;2023-04-10T07:02:09;7.75;;;5.03;;
77191;SDS011;66172;48.526;8.078;2023-04-10T07:04:36;7.28;;;4.75;;
77191;SDS011;66172;48.526;8.078;2023-04-10T07:07:02;8.07;;;5.85;;
77191;SDS011;66172;48.526;8.078;2023-04-10T07:09:28;9.13;;;5.73;;
77191;SDS011;66172;48.526;8.078;2023-04-10T07:11:55;8.18;;;5.82;;
77191;SDS011;66172;48.526;8.078;2023-04-10T07:14:21;7.57;;;5.70;;
77191;SDS011;66172;48.526;8.078;2023-04-10T07:16:47;7.55;;;5.80;;
77191;SDS011;66172;48.526;8.078;2023-04-10T07:19:13;7.47;;;5.40;;
77191;SDS011;66172;48.526;8.078;2023-04-10T07:21:40;7.10;;;5.10;;
77191;SDS011;66172;48.526;8.078;2023-04-10T07:24:06;6.80;;;4.75;;
77191;SDS011;66172;48.526;8.078;2023-04-10T07:26:32;7.07;;;5.13;;
77191;SDS011;66172;48.526;8.078;2023-04-10T07:28:58;6.68;;;5.20;;
77191;SDS011;66172;48.526;8.078;2023-04-10T07:31:23;7.60;;;6.07;;
77191;SDS011;66172;48.526;8.078;2023-04-10T07:33:49;7.88;;;6.05;;
77191;SDS011;66172;48.526;8.078;2023-04-10T07:36:16;8.43;;;5.70;;
77191;SDS011;66172;48.526;8.078;2023-04-10T07:38:42;7.75;;;5.68;;
77191;SDS011;66172;48.526;8.078;2023-04-10T07:41:08;7.83;;;5.93;;
77191;SDS011;66172;48.526;8.078;2023-04-10T07:43:36;8.13;;;6.00;;
77191;SDS011;66172;48.526;8.078;2023-04-10T07:46:02;8.60;;;6.18;;
77191;SDS011;66172;48.526;8.078;2023-04-10T07:48:28;8.53;;;6.07;;
77191;SDS011;66172;48.526;8.078;2023-04-10T07:50:54;9.27;;;6.95;;
77191;SDS011;66172;48.526;8.078;2023-04-10T07:53:20;8.82;;;6.15;;
77191;SDS011;66172;48.526;8.078;2023-04-10T07:55:46;14.32;;;10.75;;
77191;SDS011;66172;48.526;8.078;2023-04-10T07:58:13;8.23;;;6.20;;
77191;SDS011;66172;48.526;8.078;2023-04-10T08:00:40;8.02;;;6.25;;
77191;SDS011;66172;48.526;8.078;2023-04-10T08:03:06;8.48;;;6.00;;
77191;SDS011;66172;48.526;8.078;2023-04-10T08:05:32;8.55;;;6.35;;
77191;SDS011;66172;48.526;8.078;2023-04-10T08:07:58;9.60;;;7.00;;
77191;SDS011;66172;48.526;8.078;2023-04-10T08:10:24;8.77;;;6.67;;
77191;SDS011;66172;48.526;8.078;2023-04-10T08:12:50;8.65;;;6.25;;
77191;SDS011;66172;48.526;8.078;2023-04-10T08:15:16;9.32;;;6.15;;
77191;SDS011;66172;48.526;8.078;2023-04-10T08:17:42;8.65;;;6.05;;
77191;SDS011;66172;48.526;8.078;2023-04-10T08:20:09;9.03;;;5.93;;
77191;SDS011;66172;48.526;8.078;2023-04-10T08:22:36;8.20;;;5.80;;
77191;SDS011;66172;48.526;8.078;2023-04-10T08:25:02;8.18;;;5.53;;
77191;SDS011;66172;48.526;8.078;2023-04-10T08:27:29;8.23;;;5.65;;
77191;SDS011;66172;48.526;8.078;2023-04-10T08:29:55;8.00;;;5.50;;
77191;SDS011;66172;48.526;8.078;2023-04-10T08:32:24;7.97;;;5.20;;
77191;SDS011;66172;48.526;8.078;2023-04-10T08:34:51;7.47;;;4.95;;
77191;SDS011;66172;48.526;8.078;2023-04-10T08:37:16;8.18;;;5.47;;
77191;SDS011;66172;48.526;8.078;2023-04-10T08:39:44;8.17;;;5.50;;
77191;SDS011;66172;48.526;8.078;2023-04-10T08:42:10;9.27;;;5.85;;
77191;SDS011;66172;48.526;8.078;2023-04-10T08:44:36;7.95;;;5.43;;
77191;SDS011;66172;48.526;8.078;2023-04-10T08:47:02;8.13;;;5.22;;
77191;SDS011;66172;48.526;8.078;2023-04-10T08:49:31;7.95;;;5.43;;
77191;SDS011;66172;48.526;8.078;2023-04-10T08:52:04;9.50;;;5.17;;
77191;SDS011;66172;48.526;8.078;2023-04-10T08:54:33;9.40;;;5.53;;
77191;SDS011;66172;48.526;8.078;2023-04-10T08:57:04;8.40;;;5.30;;
77191;SDS011;66172;48.526;8.078;2023-04-10T08:59:31;8.10;;;5.32;;
77191;SDS011;66172;48.526;8.078;2023-04-10T09:01:57;8.80;;;5.00;;
77191;SDS011;66172;48.526;8.078;2023-04-10T09:04:24;9.40;;;6.40;;
77191;SDS011;66172;48.526;8.078;2023-04-10T09:06:51;10.25;;;6.25;;
77191;SDS011;66172;48.526;8.078;2023-04-10T09:09:20;10.07;;;5.70;;
77191;SDS011;66172;48.526;8.078;2023-04-10T09:14:21;7.90;;;5.00;;
77191;SDS011;66172;48.526;8.078;2023-04-10T09:16:52;8.25;;;5.10;;
77191;SDS011;66172;48.526;8.078;2023-04-10T09:19:40;8.88;;;5.68;;
77191;SDS011;66172;48.526;8.078;2023-04-10T09:22:05;9.18;;;5.35;;
77191;SDS011;66172;48.526;8.078;2023-04-10T09:24:34;7.68;;;4.88;;
77191;SDS011;66172;48.526;8.078;2023-04-10T09:27:02;8.10;;;4.87;;
77191;SDS011;66172;48.526;8.078;2023-04-10T09:29:37;12.20;;;5.10;;
77191;SDS011;66172;48.526;8.078;2023-04-10T09:32:04;9.00;;;4.88;;
77191;SDS011;66172;48.526;8.078;2023-04-10T09:34:30;7.35;;;4.40;;
77191;SDS011;66172;48.526;8.078;2023-04-10T09:36:57;7.10;;;4.72;;
77191;SDS011;66172;48.526;8.078;2023-04-10T09:39:35;7.37;;;4.80;;
77191;SDS011;66172;48.526;8.078;2023-04-10T09:42:05;8.55;;;5.30;;
77191;SDS011;66172;48.526;8.078;2023-04-10T09:44:32;9.18;;;5.07;;
77191;SDS011;66172;48.526;8.078;2023-04-10T09:49:54;7.40;;;4.30;;
77191;SDS011;66172;48.526;8.078;2023-04-10T09:52:23;7.20;;;4.50;;
77191;SDS011;66172;48.526;8.078;2023-04-10T09:54:51;8.35;;;4.25;;
77191;SDS011;66172;48.526;8.078;2023-04-10T09:57:19;7.03;;;4.32;;
77191;SDS011;66172;48.526;8.078;2023-04-10T09:59:47;7.40;;;4.47;;
77191;SDS011;66172;48.526;8.078;2023-04-10T10:02:24;6.67;;;4.13;;
77191;SDS011;66172;48.526;8.078;2023-04-10T10:04:53;6.90;;;4.63;;
77191;SDS011;66172;48.526;8.078;2023-04-10T10:07:19;7.25;;;4.70;;
77191;SDS011;66172;48.526;8.078;2023-04-10T10:09:47;6.75;;;4.18;;
77191;SDS011;66172;48.526;8.078;2023-04-10T10:12:14;6.82;;;4.50;;
77191;SDS011;66172;48.526;8.078;2023-04-10T10:17:34;7.30;;;4.60;;
77191;SDS011;66172;48.526;8.078;2023-04-10T10:20:08;6.90;;;4.43;;
77191;SDS011;66172;48.526;8.078;2023-04-10T10:22:35;6.45;;;4.28;;
77191;SDS011;66172;48.526;8.078;2023-04-10T10:25:02;7.10;;;4.35;;
77191;SDS011;66172;48.526;8.078;2023-04-10T10:27:30;6.90;;;4.40;;
77191;SDS011;66172;48.526;8.078;2023-04-10T10:29:59;6.40;;;4.00;;
77191;SDS011;66172;48.526;8.078;2023-04-10T10:32:25;5.72;;;3.58;;
77191;SDS011;66172;48.526;8.078;2023-04-10T10:34:52;7.30;;;4.38;;
77191;SDS011;66172;48.526;8.078;2023-04-10T10:37:19;6.25;;;4.07;;
77191;SDS011;66172;48.526;8.078;2023-04-10T10:39:52;6.17;;;3.63;;
77191;SDS011;66172;48.526;8.078;2023-04-10T10:45:23;6.30;;;4.07;;
77191;SDS011;66172;48.526;8.078;2023-04-10T10:47:57;6.55;;;3.95;;
77191;SDS011;66172;48.526;8.078;2023-04-10T10:50:23;7.05;;;4.05;;
77191;SDS011;66172;48.526;8.078;2023-04-10T10:52:50;6.47;;;3.90;;
77191;SDS011;66172;48.526;8.078;2023-04-10T10:57:50;6.57;;;3.70;;
77191;SDS011;66172;48.526;8.078;2023-04-10T11:00:21;6.47;;;3.80;;
77191;SDS011;66172;48.526;8.078;2023-04-10T11:03:25;6.68;;;4.15;;
77191;SDS011;66172;48.526;8.078;2023-04-10T11:05:58;6.43;;;3.90;;
77191;SDS011;66172;48.526;8.078;2023-04-10T11:08:49;5.90;;;3.60;;
77191;SDS011;66172;48.526;8.078;2023-04-10T11:11:20;5.65;;;3.60;;
77191;SDS011;66172;48.526;8.078;2023-04-10T11:16:43;6.38;;;3.70;;
77191;SDS011;66172;48.526;8.078;2023-04-10T11:19:11;6.23;;;3.60;;
77191;SDS011;66172;48.526;8.078;2023-04-10T11:24:26;5.45;;;3.63;;
77191;SDS011;66172;48.526;8.078;2023-04-10T11:26:52;5.63;;;3.53;;
77191;SDS011;66172;48.526;8.078;2023-04-10T11:31:54;6.00;;;3.70;;
77191;SDS011;66172;48.526;8.078;2023-04-10T11:34:21;5.82;;;3.50;;
77191;SDS011;66172;48.526;8.078;2023-04-10T11:36:52;5.80;;;3.40;;
77191;SDS011;66172;48.526;8.078;2023-04-10T11:39:18;5.80;;;3.42;;
77191;SDS011;66172;48.526;8.078;2023-04-10T11:41:45;6.38;;;3.80;;
77191;SDS011;66172;48.526;8.078;2023-04-10T11:44:14;5.77;;;3.27;;
77191;SDS011;66172;48.526;8.078;2023-04-10T11:46:44;5.93;;;3.25;;
77191;SDS011;66172;48.526;8.078;2023-04-10T11:49:19;5.45;;;2.90;;
77191;SDS011;66172;48.526;8.078;2023-04-10T11:51:57;6.47;;;2.90;;
77191;SDS011;66172;48.526;8.078;2023-04-10T11:54:26;5.53;;;3.15;;
77191;SDS011;66172;48.526;8.078;2023-04-10T11:59:26;4.95;;;2.92;;
77191;SDS011;66172;48.526;8.078;2023-04-10T12:02:01;5.00;;;2.92;;
77191;SDS011;66172;48.526;8.078;2023-04-10T12:04:32;6.88;;;4.18;;
77191;SDS011;66172;48.526;8.078;2023-04-10T12:06:58;5.78;;;2.80;;
77191;SDS011;66172;48.526;8.078;2023-04-10T12:09:24;5.20;;;2.80;;
77191;SDS011;66172;48.526;8.078;2023-04-10T12:11:51;5.40;;;2.92;;
77191;SDS011;66172;48.526;8.078;2023-04-10T12:14:18;5.95;;;3.13;;
77191;SDS011;66172;48.526;8.078;2023-04-10T12:16:50;5.00;;;2.60;;
77191;SDS011;66172;48.526;8.078;2023-04-10T12:19:17;4.82;;;2.42;;
77191;SDS011;66172;48.526;8.078;2023-04-10T12:21:44;5.33;;;2.27;;
77191;SDS011;66172;48.526;8.078;2023-04-10T12:24:10;5.68;;;2.60;;
77191;SDS011;66172;48.526;8.078;2023-04-10T12:26:37;5.10;;;2.72;;
77191;SDS011;66172;48.526;8.078;2023-04-10T12:29:03;4.93;;;2.65;;
77191;SDS011;66172;48.526;8.078;2023-04-10T12:31:31;6.50;;;2.75;;
77191;SDS011;66172;48.526;8.078;2023-04-10T12:33:59;4.47;;;2.07;;
77191;SDS011;66172;48.526;8.078;2023-04-10T12:36:27;5.80;;;2.70;;
77191;SDS011;66172;48.526;8.078;2023-04-10T12:38:57;5.32;;;2.67;;
77191;SDS011;66172;48.526;8.078;2023-04-10T12:41:25;4.78;;;2.20;;
77191;SDS011;66172;48.526;8.078;2023-04-10T12:43:52;5.03;;;2.75;;
77191;SDS011;66172;48.526;8.078;2023-04-10T12:46:32;5.33;;;2.40;;
77191;SDS011;66172;48.526;8.078;2023-04-10T12:49:07;5.30;;;2.60;;
77191;SDS011;66172;48.526;8.078;2023-04-10T12:51:49;5.30;;;2.60;;
77191;SDS011;66172;48.526;8.078;2023-04-10T12:56:52;6.03;;;2.47;;
77191;SDS011;66172;48.526;8.078;2023-04-10T12:59:19;5.13;;;2.60;;
77191;SDS011;66172;48.526;8.078;2023-04-10T13:01:44;6.28;;;2.90;;
77191;SDS011;66172;48.526;8.078;2023-04-10T13:04:10;5.25;;;2.30;;
77191;SDS011;66172;48.526;8.078;2023-04-10T13:06:46;5.18;;;2.53;;
77191;SDS011;66172;48.526;8.078;2023-04-10T13:09:13;5.63;;;3.00;;
77191;SDS011;66172;48.526;8.078;2023-04-10T13:11:40;6.55;;;2.58;;
77191;SDS011;66172;48.526;8.078;2023-04-10T13:14:07;4.57;;;2.40;;
77191;SDS011;66172;48.526;8.078;2023-04-10T13:16:33;4.68;;;2.42;;
77191;SDS011;66172;48.526;8.078;2023-04-10T13:18:59;4.63;;;2.30;;
77191;SDS011;66172;48.526;8.078;2023-04-10T13:21:25;4.50;;;2.47;;
77191;SDS011;66172;48.526;8.078;2023-04-10T13:23:53;4.22;;;2.00;;
77191;SDS011;66172;48.526;8.078;2023-04-10T13:26:22;4.78;;;2.50;;
77191;SDS011;66172;48.526;8.078;2023-04-10T13:28:48;4.57;;;1.98;;
77191;SDS011;66172;48.526;8.078;2023-04-10T13:31:15;4.80;;;2.30;;
77191;SDS011;66172;48.526;8.078;2023-04-10T13:33:44;6.13;;;2.30;;
77191;SDS011;66172;48.526;8.078;2023-04-10T13:36:13;4.15;;;2.00;;
77191;SDS011;66172;48.526;8.078;2023-04-10T13:38:40;5.00;;;2.50;;
77191;SDS011;66172;48.526;8.078;2023-04-10T13:41:06;5.90;;;2.50;;
77191;SDS011;66172;48.526;8.078;2023-04-10T13:43:32;5.00;;;2.20;;
77191;SDS011;66172;48.526;8.078;2023-04-10T13:45:57;3.90;;;1.88;;
77191;SDS011;66172;48.526;8.078;2023-04-10T13:48:23;4.97;;;1.83;;
77191;SDS011;66172;48.526;8.078;2023-04-10T13:50:49;4.50;;;2.05;;
77191;SDS011;66172;48.526;8.078;2023-04-10T13:53:15;4.10;;;2.00;;
77191;SDS011;66172;48.526;8.078;2023-04-10T13:55:41;5.03;;;1.98;;
77191;SDS011;66172;48.526;8.078;2023-04-10T13:58:09;5.75;;;2.33;;
77191;SDS011;66172;48.526;8.078;2023-04-10T14:00:38;4.20;;;1.90;;
77191;SDS011;66172;48.526;8.078;2023-04-10T14:03:04;4.60;;;2.00;;
77191;SDS011;66172;48.526;8.078;2023-04-10T14:05:34;4.25;;;1.90;;
77191;SDS011;66172;48.526;8.078;2023-04-10T14:08:00;4.57;;;1.70;;
77191;SDS011;66172;48.526;8.078;2023-04-10T14:10:26;4.88;;;2.20;;
77191;SDS011;66172;48.526;8.078;2023-04-10T14:12:52;4.50;;;2.40;;
77191;SDS011;66172;48.526;8.078;2023-04-10T14:15:18;5.00;;;2.10;;
77191;SDS011;66172;48.526;8.078;2023-04-10T14:17:44;4.30;;;2.10;;
77191;SDS011;66172;48.526;8.078;2023-04-10T14:20:10;5.68;;;2.53;;
77191;SDS011;66172;48.526;8.078;2023-04-10T14:22:36;5.10;;;2.50;;
77191;SDS011;66172;48.526;8.078;2023-04-10T14:25:02;4.10;;;2.00;;
77191;SDS011;66172;48.526;8.078;2023-04-10T14:27:29;4.65;;;2.20;;
77191;SDS011;66172;48.526;8.078;2023-04-10T14:29:58;4.55;;;2.22;;
77191;SDS011;66172;48.526;8.078;2023-04-10T14:32:24;4.30;;;1.80;;
77191;SDS011;66172;48.526;8.078;2023-04-10T14:34:50;5.47;;;2.00;;
77191;SDS011;66172;48.526;8.078;2023-04-10T14:37:16;4.50;;;2.30;;
77191;SDS011;66172;48.526;8.078;2023-04-10T14:39:43;4.32;;;1.90;;
77191;SDS011;66172;48.526;8.078;2023-04-10T14:42:09;4.40;;;2.10;;
77191;SDS011;66172;48.526;8.078;2023-04-10T14:44:35;4.72;;;2.20;;
77191;SDS011;66172;48.526;8.078;2023-04-10T14:47:01;4.68;;;1.92;;
77191;SDS011;66172;48.526;8.078;2023-04-10T14:49:30;4.43;;;2.15;;
77191;SDS011;66172;48.526;8.078;2023-04-10T14:51:57;4.70;;;1.83;;
77191;SDS011;66172;48.526;8.078;2023-04-10T14:54:22;5.30;;;2.10;;
77191;SDS011;66172;48.526;8.078;2023-04-10T14:56:49;4.68;;;1.95;;
77191;SDS011;66172;48.526;8.078;2023-04-10T14:59:15;5.50;;;2.40;;
77191;SDS011;66172;48.526;8.078;2023-04-10T15:01:42;3.90;;;1.80;;
77191;SDS011;66172;48.526;8.078;2023-04-10T15:04:08;4.55;;;2.10;;
77191;SDS011;66172;48.526;8.078;2023-04-10T15:06:34;4.93;;;1.90;;
77191;SDS011;66172;48.526;8.078;2023-04-10T15:09:00;4.93;;;1.77;;
77191;SDS011;66172;48.526;8.078;2023-04-10T15:11:25;4.23;;;1.90;;
77191;SDS011;66172;48.526;8.078;2023-04-10T15:13:51;4.68;;;1.60;;
77191;SDS011;66172;48.526;8.078;2023-04-10T15:16:17;4.15;;;1.77;;
77191;SDS011;66172;48.526;8.078;2023-04-10T15:18:47;4.90;;;1.70;;